createdAt,value
2017-05-29T00:00:23.775Z,1.30
2017-05-29T00:02:50.018Z,1.56
2017-05-29T00:05:16.366Z,1.20
2017-05-29T00:07:42.549Z,1.18
2017-05-29T00:10:08.754Z,1.40
2017-05-29T00:12:34.917Z,1.50
2017-05-29T00:15:01.992Z,1.56
2017-05-29T00:17:28.254Z,1.66
2017-05-29T00:19:54.462Z,1.30
2017-05-29T00:22:20.682Z,1.30
2017-05-29T00:24:46.961Z,1.40
2017-05-29T00:27:13.119Z,1.40
2017-05-29T00:29:39.389Z,1.30
2017-05-29T00:32:07.305Z,1.58
2017-05-29T00:34:33.500Z,1.28
2017-05-29T00:36:59.660Z,1.34
2017-05-29T00:39:25.856Z,1.28
2017-05-29T00:41:52.129Z,1.32
2017-05-29T00:44:18.299Z,1.38
2017-05-29T00:46:45.251Z,1.32
2017-05-29T00:49:11.527Z,1.40
2017-05-29T00:51:38.574Z,1.54
2017-05-29T00:54:04.732Z,1.60
2017-05-29T00:56:30.930Z,1.44
2017-05-29T00:58:57.121Z,1.48
2017-05-29T01:01:23.375Z,1.40
2017-05-29T01:03:49.542Z,1.38
2017-05-29T01:06:15.817Z,1.36
2017-05-29T01:08:42.007Z,1.56
2017-05-29T01:11:08.158Z,1.32
2017-05-29T01:13:34.394Z,1.40
2017-05-29T01:16:00.605Z,1.40
2017-05-29T01:18:26.780Z,1.60
2017-05-29T01:20:52.978Z,1.58
2017-05-29T01:23:19.297Z,1.64
2017-05-29T01:25:45.568Z,1.20
2017-05-29T01:28:14.681Z,1.60
2017-05-29T01:30:41.460Z,1.50
2017-05-29T01:33:07.619Z,1.46
2017-05-29T01:35:33.781Z,1.96
2017-05-29T01:38:00.862Z,1.60
2017-05-29T01:40:28.118Z,1.68
2017-05-29T01:42:54.349Z,1.64
2017-05-29T01:45:20.592Z,1.38
2017-05-29T01:47:46.747Z,1.40
2017-05-29T01:50:12.937Z,1.54
2017-05-29T01:52:40.205Z,2.00
2017-05-29T01:55:06.492Z,1.56
2017-05-29T01:57:32.682Z,1.52
2017-05-29T01:59:59.730Z,1.52
2017-05-29T02:02:26.763Z,1.90
2017-05-29T02:04:52.955Z,1.60
2017-05-29T02:07:19.987Z,2.40
2017-05-29T02:09:46.251Z,1.62
2017-05-29T02:12:12.415Z,1.80
2017-05-29T02:14:39.621Z,1.62
2017-05-29T02:17:07.010Z,1.88
2017-05-29T02:19:34.072Z,2.04
2017-05-29T02:22:00.232Z,1.98
2017-05-29T02:24:26.462Z,1.88
2017-05-29T02:26:52.647Z,1.80
2017-05-29T02:29:19.754Z,2.18
2017-05-29T02:31:46.074Z,1.98
2017-05-29T02:34:12.233Z,1.70
2017-05-29T02:36:39.354Z,1.76
2017-05-29T02:39:05.513Z,1.70
2017-05-29T02:41:31.736Z,2.02
2017-05-29T02:43:59.724Z,1.76
2017-05-29T02:46:25.877Z,1.54
2017-05-29T02:48:52.057Z,2.06
2017-05-29T02:51:18.206Z,2.00
2017-05-29T02:53:44.406Z,1.80
2017-05-29T02:56:10.774Z,1.70
2017-05-29T02:58:37.696Z,2.02
2017-05-29T03:01:03.974Z,2.02
2017-05-29T03:03:30.169Z,2.34
2017-05-29T03:05:56.334Z,2.16
2017-05-29T03:08:23.314Z,1.98
2017-05-29T03:10:49.490Z,2.00
2017-05-29T03:13:16.183Z,2.10
2017-05-29T03:15:42.417Z,2.10
2017-05-29T03:18:08.595Z,2.20
2017-05-29T03:20:34.757Z,2.00
2017-05-29T03:23:00.904Z,2.42
2017-05-29T03:25:27.122Z,1.78
2017-05-29T03:37:33.494Z,2.38
2017-05-29T03:40:02.466Z,2.00
2017-05-29T03:42:28.621Z,2.28
2017-05-29T03:44:54.819Z,2.18
2017-05-29T03:47:21.011Z,2.38
2017-05-29T03:49:47.313Z,2.02
2017-05-29T03:52:13.465Z,2.30
2017-05-29T03:54:40.424Z,2.42
2017-05-29T03:57:06.598Z,2.10
2017-05-29T03:59:33.513Z,2.48
2017-05-29T04:01:59.680Z,1.94
2017-05-29T04:04:26.654Z,2.40
2017-05-29T04:06:52.873Z,2.28
2017-05-29T04:09:19.713Z,2.30
2017-05-29T04:11:45.882Z,2.42
2017-05-29T04:14:12.900Z,2.30
2017-05-29T04:16:39.413Z,2.20
2017-05-29T04:19:06.357Z,2.58
2017-05-29T04:21:32.549Z,2.46
2017-05-29T04:23:58.786Z,2.30
2017-05-29T04:26:25.170Z,2.26
2017-05-29T04:28:51.397Z,2.42
2017-05-29T04:31:17.567Z,2.38
2017-05-29T04:33:43.795Z,2.54
2017-05-29T04:36:10.013Z,2.50
2017-05-29T04:38:36.519Z,2.30
2017-05-29T04:41:03.490Z,2.62
2017-05-29T04:43:29.647Z,2.76
2017-05-29T04:45:55.817Z,2.74
2017-05-29T04:48:21.990Z,2.16
2017-05-29T04:50:48.278Z,2.78
2017-05-29T04:53:14.465Z,2.58
2017-05-29T04:55:40.631Z,2.46
2017-05-29T04:58:06.926Z,2.90
2017-05-29T05:00:33.833Z,3.24
2017-05-29T05:03:00.133Z,2.56
2017-05-29T05:05:26.351Z,2.70
2017-05-29T05:07:52.514Z,2.50
2017-05-29T05:10:19.406Z,2.52
2017-05-29T05:12:45.565Z,3.06
2017-05-29T05:15:11.823Z,2.68
2017-05-29T05:17:37.981Z,2.90
2017-05-29T05:20:04.233Z,4.68
2017-05-29T05:22:30.511Z,6.38
2017-05-29T05:24:56.782Z,6.48
2017-05-29T05:27:23.106Z,6.64
2017-05-29T05:29:49.452Z,6.14
2017-05-29T05:32:15.642Z,6.48
2017-05-29T05:34:41.884Z,6.20
2017-05-29T05:37:08.887Z,5.50
2017-05-29T05:39:35.057Z,7.32
2017-05-29T05:42:02.946Z,5.88
2017-05-29T05:44:30.049Z,5.78
2017-05-29T05:46:56.248Z,6.40
2017-05-29T05:49:23.411Z,6.76
2017-05-29T05:51:49.588Z,7.78
2017-05-29T05:54:15.745Z,7.50
2017-05-29T05:56:42.009Z,7.52
2017-05-29T05:59:08.247Z,6.50
2017-05-29T06:01:34.438Z,7.50
2017-05-29T06:04:00.594Z,7.58
2017-05-29T06:06:26.759Z,7.60
2017-05-29T06:08:53.916Z,7.46
2017-05-29T06:11:20.826Z,7.58
2017-05-29T06:13:47.075Z,7.88
2017-05-29T06:16:13.271Z,7.56
2017-05-29T06:18:39.483Z,7.50
2017-05-29T06:21:05.692Z,7.14
2017-05-29T06:23:31.861Z,7.98
2017-05-29T06:25:59.486Z,8.24
2017-05-29T06:28:25.650Z,8.38
2017-05-29T06:30:51.842Z,6.50
2017-05-29T06:33:18.086Z,6.30
2017-05-29T06:35:44.287Z,6.04
2017-05-29T06:38:10.473Z,5.54
2017-05-29T06:40:36.651Z,5.82
2017-05-29T06:43:02.861Z,4.42
2017-05-29T06:45:29.346Z,3.60
2017-05-29T06:47:55.559Z,3.94
2017-05-29T06:50:21.726Z,3.26
2017-05-29T06:52:47.933Z,3.46
2017-05-29T06:55:14.085Z,3.24
2017-05-29T06:57:40.335Z,3.20
2017-05-29T07:00:07.386Z,3.00
2017-05-29T07:02:33.598Z,3.60
2017-05-29T07:04:59.758Z,2.90
2017-05-29T07:07:26.000Z,3.18
2017-05-29T07:09:52.169Z,2.64
2017-05-29T07:12:18.422Z,2.92
2017-05-29T07:14:44.633Z,2.82
2017-05-29T07:17:10.798Z,3.02
2017-05-29T07:19:37.018Z,3.30
2017-05-29T07:22:03.188Z,3.08
2017-05-29T07:24:29.471Z,3.26
2017-05-29T07:26:55.699Z,2.48
2017-05-29T07:29:21.910Z,3.20
2017-05-29T07:31:48.079Z,2.90
2017-05-29T07:34:14.271Z,2.82
2017-05-29T07:36:40.529Z,2.72
2017-05-29T07:39:06.693Z,2.50
2017-05-29T07:41:32.857Z,2.40
2017-05-29T07:43:59.095Z,3.16
2017-05-29T07:46:25.267Z,2.18
2017-05-29T07:48:51.558Z,2.58
2017-05-29T07:51:17.734Z,2.38
2017-05-29T07:53:44.035Z,2.40
2017-05-29T07:56:10.235Z,2.86
2017-05-29T07:58:36.449Z,2.78
2017-05-29T08:01:02.946Z,2.40
2017-05-29T08:03:29.117Z,2.62
2017-05-29T08:05:55.286Z,2.36
2017-05-29T08:08:21.477Z,2.40
2017-05-29T08:10:47.665Z,2.50
2017-05-29T08:13:13.913Z,2.82
2017-05-29T08:15:40.142Z,2.68
2017-05-29T08:18:06.362Z,2.76
2017-05-29T08:20:32.549Z,2.56
2017-05-29T08:22:58.718Z,2.70
2017-05-29T08:25:24.987Z,2.26
2017-05-29T08:27:51.164Z,2.58
2017-05-29T08:30:17.373Z,2.30
2017-05-29T08:42:23.555Z,2.20
2017-05-29T08:44:49.729Z,2.10
2017-05-29T08:47:16.007Z,2.10
2017-05-29T08:49:42.181Z,2.30
2017-05-29T08:52:08.339Z,2.40
2017-05-29T08:54:34.558Z,2.50
2017-05-29T08:57:00.765Z,2.36
2017-05-29T08:59:26.946Z,1.98
2017-05-29T09:01:53.196Z,1.98
2017-05-29T09:04:19.346Z,2.16
2017-05-29T09:06:45.572Z,2.14
2017-05-29T09:09:11.775Z,2.36
2017-05-29T09:11:37.936Z,2.24
2017-05-29T09:14:04.177Z,2.26
2017-05-29T09:16:30.464Z,2.20
2017-05-29T09:18:56.650Z,2.40
2017-05-29T09:21:22.818Z,1.76
2017-05-29T09:23:49.721Z,2.10
2017-05-29T09:26:15.882Z,2.20
2017-05-29T09:28:42.169Z,1.90
2017-05-29T09:31:09.071Z,1.86
2017-05-29T09:33:35.389Z,1.70
2017-05-29T09:36:01.915Z,2.42
2017-05-29T09:38:28.079Z,2.20
2017-05-29T09:40:54.261Z,2.30
2017-05-29T09:43:20.436Z,1.94
2017-05-29T09:45:46.724Z,2.02
2017-05-29T09:48:12.913Z,1.86
2017-05-29T09:50:39.077Z,2.04
2017-05-29T09:53:05.224Z,2.32
2017-05-29T09:55:31.872Z,2.16
2017-05-29T09:57:58.334Z,2.26
2017-05-29T10:00:25.310Z,2.04
2017-05-29T10:02:51.490Z,2.22
2017-05-29T10:05:17.725Z,2.48
2017-05-29T10:07:43.924Z,2.24
2017-05-29T10:10:10.131Z,2.20
2017-05-29T10:12:36.290Z,2.12
2017-05-29T10:15:03.624Z,1.60
2017-05-29T10:17:29.852Z,1.92
2017-05-29T10:19:56.018Z,2.08
2017-05-29T10:22:22.219Z,2.12
2017-05-29T10:24:48.401Z,2.26
2017-05-29T10:27:14.739Z,1.84
2017-05-29T10:29:40.950Z,2.20
2017-05-29T10:32:07.181Z,2.24
2017-05-29T10:34:34.839Z,1.94
2017-05-29T10:37:01.015Z,1.80
2017-05-29T10:39:27.283Z,2.44
2017-05-29T10:41:53.438Z,2.34
2017-05-29T10:44:19.667Z,1.74
2017-05-29T10:46:45.994Z,2.02
2017-05-29T10:49:13.209Z,2.30
2017-05-29T10:51:39.370Z,2.00
2017-05-29T10:54:05.536Z,2.10
2017-05-29T10:56:31.754Z,1.90
2017-05-29T10:58:57.990Z,2.48
2017-05-29T11:01:24.297Z,3.08
2017-05-29T11:03:50.469Z,2.16
2017-05-29T11:06:16.770Z,2.14
2017-05-29T11:08:42.951Z,2.42
2017-05-29T11:11:09.210Z,2.62
2017-05-29T11:13:35.526Z,2.10
2017-05-29T11:16:01.776Z,2.10
2017-05-29T11:18:28.021Z,2.42
2017-05-29T11:20:54.233Z,2.08
2017-05-29T11:33:00.424Z,2.64
2017-05-29T11:35:26.684Z,2.86
2017-05-29T11:37:53.357Z,2.40
2017-05-29T11:40:19.551Z,2.64
2017-05-29T11:52:25.777Z,2.88
2017-05-29T11:54:53.971Z,2.36
2017-05-29T11:57:20.202Z,3.00
2017-05-29T11:59:46.406Z,2.72
2017-05-29T12:02:12.661Z,2.84
2017-05-29T12:04:38.873Z,3.12
2017-05-29T12:07:05.035Z,2.82
2017-05-29T12:09:32.197Z,2.70
2017-05-29T12:11:58.421Z,2.80
2017-05-29T12:14:24.597Z,2.88
2017-05-29T12:16:50.886Z,2.62
2017-05-29T12:19:17.129Z,2.86
2017-05-29T12:21:43.308Z,2.06
2017-05-29T12:24:09.466Z,2.82
2017-05-29T12:26:36.210Z,2.56
2017-05-29T12:29:02.509Z,4.48
2017-05-29T12:31:29.487Z,4.80
2017-05-29T12:33:56.326Z,3.88
2017-05-29T12:36:22.606Z,3.88
2017-05-29T12:38:48.895Z,4.00
2017-05-29T12:41:15.180Z,4.88
2017-05-29T12:43:43.818Z,4.30
2017-05-29T12:46:10.081Z,4.04
2017-05-29T12:48:36.489Z,4.10
2017-05-29T12:51:02.765Z,4.44
2017-05-29T12:53:28.974Z,4.50
2017-05-29T12:55:55.179Z,8.96
2017-05-29T12:58:21.354Z,8.12
2017-05-29T13:00:47.526Z,8.40
2017-05-29T13:03:13.809Z,6.30
2017-05-29T13:05:40.023Z,8.04
2017-05-29T13:08:06.210Z,6.38
2017-05-29T13:10:32.425Z,6.54
2017-05-29T13:12:58.587Z,6.98
2017-05-29T13:15:24.902Z,7.86
2017-05-29T13:17:51.113Z,8.60
2017-05-29T13:20:18.047Z,8.60
2017-05-29T13:22:44.367Z,7.64
2017-05-29T13:25:11.554Z,6.52
2017-05-29T13:27:37.946Z,7.96
2017-05-29T13:30:04.111Z,6.76
2017-05-29T13:32:30.299Z,6.90
2017-05-29T13:34:56.570Z,7.48
2017-05-29T13:37:22.783Z,7.76
2017-05-29T13:39:49.189Z,8.78
2017-05-29T13:42:16.322Z,9.52
2017-05-29T13:44:42.583Z,12.08
2017-05-29T13:47:08.799Z,12.38
2017-05-29T13:49:35.079Z,11.00
2017-05-29T13:52:02.190Z,11.98
2017-05-29T13:54:28.428Z,12.02
2017-05-29T13:56:54.592Z,14.10
2017-05-29T13:59:20.752Z,12.30
2017-05-29T14:01:48.454Z,13.40
2017-05-29T14:04:15.457Z,13.10
2017-05-29T14:06:41.633Z,11.96
2017-05-29T14:09:07.834Z,12.30
2017-05-29T14:11:34.753Z,15.62
2017-05-29T14:14:01.689Z,14.52
2017-05-29T14:16:28.334Z,13.14
2017-05-29T14:18:54.662Z,11.60
2017-05-29T14:21:20.881Z,13.40
2017-05-29T14:23:47.794Z,14.22
2017-05-29T14:26:14.182Z,13.96
2017-05-29T14:28:40.422Z,14.30
2017-05-29T14:31:06.677Z,16.54
2017-05-29T14:33:32.926Z,13.38
2017-05-29T14:35:59.106Z,14.06
2017-05-29T14:38:25.895Z,12.92
2017-05-29T14:40:52.096Z,15.26
2017-05-29T14:43:18.346Z,15.74
2017-05-29T14:45:44.552Z,13.72
2017-05-29T14:48:10.794Z,15.36
2017-05-29T14:50:37.711Z,14.64
2017-05-29T14:53:04.607Z,11.50
2017-05-29T14:55:30.865Z,13.70
2017-05-29T14:57:57.771Z,13.42
2017-05-29T15:00:24.034Z,13.10
2017-05-29T15:02:50.290Z,13.30
2017-05-29T15:05:17.273Z,14.40
2017-05-29T15:07:43.529Z,13.58
2017-05-29T15:10:09.703Z,14.36
2017-05-29T15:12:35.910Z,13.22
2017-05-29T15:15:02.260Z,14.00
2017-05-29T15:17:28.449Z,12.82
2017-05-29T15:19:54.717Z,12.62
2017-05-29T15:22:22.297Z,12.40
2017-05-29T15:24:49.202Z,11.46
2017-05-29T15:27:15.406Z,11.32
2017-05-29T15:29:41.890Z,11.24
2017-05-29T15:32:08.095Z,11.48
2017-05-29T15:34:34.796Z,13.04
2017-05-29T15:37:01.060Z,11.76
2017-05-29T15:39:28.012Z,13.30
2017-05-29T15:41:54.265Z,12.04
2017-05-29T15:44:20.429Z,12.10
2017-05-29T15:46:46.630Z,10.98
2017-05-29T15:49:14.400Z,9.60
2017-05-29T15:51:40.586Z,9.64
2017-05-29T15:54:06.826Z,10.66
2017-05-29T15:56:32.995Z,11.30
2017-05-29T15:58:59.897Z,10.48
2017-05-29T16:01:26.093Z,11.12
2017-05-29T16:03:52.405Z,11.54
2017-05-29T16:06:18.595Z,10.38
2017-05-29T16:08:44.758Z,10.38
2017-05-29T16:11:10.931Z,9.70
2017-05-29T16:13:37.085Z,9.52
2017-05-29T16:16:03.390Z,9.60
2017-05-29T16:18:29.551Z,10.08
2017-05-29T16:20:55.778Z,9.64
2017-05-29T16:23:21.953Z,10.10
2017-05-29T16:25:48.178Z,10.32
2017-05-29T16:28:14.383Z,10.52
2017-05-29T16:30:42.114Z,10.36
2017-05-29T16:33:09.080Z,8.24
2017-05-29T16:35:36.015Z,8.64
2017-05-29T16:38:02.293Z,11.00
2017-05-29T16:40:28.463Z,10.54
2017-05-29T16:42:54.643Z,10.48
2017-05-29T16:45:20.807Z,10.38
2017-05-29T16:47:46.970Z,10.12
2017-05-29T16:50:13.302Z,9.76
2017-05-29T16:52:40.244Z,10.32
2017-05-29T16:55:06.426Z,10.06
2017-05-29T16:57:32.606Z,9.14
2017-05-29T16:59:58.828Z,12.80
2017-05-29T17:02:25.184Z,11.46
2017-05-29T17:04:51.394Z,11.36
2017-05-29T17:07:17.557Z,11.70
2017-05-29T17:09:43.786Z,12.52
2017-05-29T17:21:49.980Z,9.40
2017-05-29T17:24:16.184Z,11.74
2017-05-29T17:26:42.554Z,9.70
2017-05-29T17:29:08.803Z,15.66
2017-05-29T17:31:35.450Z,15.52
2017-05-29T17:34:01.641Z,15.14
2017-05-29T17:36:27.877Z,15.20
2017-05-29T17:38:55.222Z,14.68
2017-05-29T17:41:21.435Z,16.02
2017-05-29T17:43:47.608Z,14.28
2017-05-29T17:46:13.838Z,13.40
2017-05-29T17:48:40.037Z,14.78
2017-05-29T17:51:06.334Z,13.58
2017-05-29T17:53:32.525Z,12.68
2017-05-29T17:55:58.735Z,13.44
2017-05-29T17:58:24.958Z,12.96
2017-05-29T18:00:52.159Z,11.98
2017-05-29T18:03:19.427Z,13.46
2017-05-29T18:05:45.590Z,13.58
2017-05-29T18:08:11.762Z,13.04
2017-05-29T18:10:37.921Z,14.18
2017-05-29T18:13:04.130Z,12.94
2017-05-29T18:15:30.411Z,13.10
2017-05-29T18:17:56.593Z,11.74
2017-05-29T18:20:22.780Z,11.74
2017-05-29T18:22:48.947Z,10.64
2017-05-29T18:25:15.199Z,11.66
2017-05-29T18:27:41.454Z,10.84
2017-05-29T18:30:07.682Z,11.38
2017-05-29T18:32:33.886Z,10.16
2017-05-29T18:35:00.055Z,9.92
2017-05-29T18:37:26.234Z,9.60
2017-05-29T18:39:52.537Z,10.28
2017-05-29T18:42:19.658Z,10.14
2017-05-29T18:44:45.827Z,10.20
2017-05-29T18:47:12.034Z,10.76
2017-05-29T18:49:38.992Z,9.48
2017-05-29T18:52:06.066Z,9.32
2017-05-29T18:54:32.990Z,9.30
2017-05-29T18:56:59.262Z,10.08
2017-05-29T18:59:25.467Z,10.24
2017-05-29T19:01:51.677Z,8.92
2017-05-29T19:04:18.804Z,9.40
2017-05-29T19:06:45.743Z,10.08
2017-05-29T19:09:12.726Z,9.40
2017-05-29T19:11:39.705Z,9.16
2017-05-29T19:14:06.012Z,8.80
2017-05-29T19:16:32.295Z,8.90
2017-05-29T19:18:58.485Z,9.00
2017-05-29T19:21:24.662Z,9.02
2017-05-29T19:23:51.577Z,8.92
2017-05-29T19:26:17.774Z,9.14
2017-05-29T19:28:44.115Z,9.66
2017-05-29T19:31:10.291Z,10.50
2017-05-29T19:33:36.490Z,9.28
2017-05-29T19:36:03.292Z,10.66
2017-05-29T19:38:30.607Z,8.88
2017-05-29T19:40:57.013Z,10.80
2017-05-29T19:43:23.197Z,9.40
2017-05-29T19:45:49.408Z,13.28
2017-05-29T19:48:15.655Z,13.68
2017-05-29T19:50:41.823Z,15.60
2017-05-29T19:53:08.150Z,16.62
2017-05-29T19:55:34.359Z,17.56
2017-05-29T19:58:00.589Z,18.12
2017-05-29T20:00:26.773Z,17.22
2017-05-29T20:02:52.938Z,18.96
2017-05-29T20:05:19.205Z,19.90
2017-05-29T20:07:45.390Z,20.70
2017-05-29T20:10:11.630Z,18.90
2017-05-29T20:12:38.592Z,18.52
2017-05-29T20:24:50.739Z,16.80
2017-05-29T20:27:17.650Z,17.18
2017-05-29T20:29:43.856Z,13.92
2017-05-29T20:32:12.473Z,16.56
2017-05-29T20:34:38.739Z,16.94
2017-05-29T20:37:05.025Z,17.82
2017-05-29T20:39:31.199Z,13.44
2017-05-29T20:41:57.394Z,15.82
2017-05-29T20:44:23.594Z,12.80
2017-05-29T20:46:49.770Z,13.06
2017-05-29T20:49:16.057Z,11.54
2017-05-29T20:51:42.230Z,14.30
2017-05-29T20:54:08.409Z,11.46
2017-05-29T20:56:34.589Z,13.34
2017-05-29T20:59:01.556Z,10.92
2017-05-29T21:01:28.587Z,12.68
2017-05-29T21:03:55.082Z,11.66
2017-05-29T21:06:21.272Z,14.08
2017-05-29T21:08:47.509Z,14.10
2017-05-29T21:23:05.574Z,10.92
2017-05-29T21:25:31.766Z,10.34
2017-05-29T21:46:40.683Z,9.52
2017-05-29T21:49:07.314Z,10.86
2017-05-29T21:51:33.509Z,9.50
2017-05-29T21:53:59.670Z,9.42
2017-05-29T21:56:25.886Z,9.70
2017-05-29T21:58:52.170Z,9.48
2017-05-29T22:01:18.925Z,9.74
2017-05-29T22:03:45.150Z,9.44
2017-05-29T22:06:11.315Z,10.30
2017-05-29T22:08:37.502Z,9.88
2017-05-29T22:11:03.751Z,8.84
2017-05-29T22:13:29.953Z,8.66
2017-05-29T22:15:56.971Z,8.30
2017-05-29T22:18:23.183Z,8.64
2017-05-29T22:20:49.350Z,8.12
2017-05-29T22:23:15.608Z,8.88
2017-05-29T22:25:41.786Z,8.04
2017-05-29T22:28:08.016Z,7.82
2017-05-29T22:30:34.474Z,7.66
2017-05-29T22:33:00.642Z,8.00
2017-05-29T22:35:26.896Z,7.40
2017-05-29T22:37:53.102Z,7.50
2017-05-29T22:40:19.254Z,7.28
2017-05-29T22:42:45.405Z,7.30
2017-05-29T22:45:11.601Z,6.78
2017-05-29T22:47:37.995Z,6.88
2017-05-29T22:50:04.190Z,6.98
2017-05-29T22:52:30.364Z,6.38
2017-05-29T22:54:56.540Z,6.82
2017-05-29T22:57:22.724Z,6.46
2017-05-29T22:59:49.111Z,6.74
2017-05-29T23:02:15.269Z,7.02
2017-05-29T23:04:41.446Z,6.48
2017-05-29T23:07:07.654Z,6.68
2017-05-29T23:09:33.813Z,6.94
2017-05-29T23:12:00.112Z,6.08
2017-05-29T23:14:26.283Z,6.38
2017-05-29T23:16:52.445Z,6.42
2017-05-29T23:19:18.609Z,6.48
2017-05-29T23:21:44.838Z,6.94
2017-05-29T23:24:11.097Z,5.88
2017-05-29T23:26:37.306Z,6.28
2017-05-29T23:29:03.596Z,6.36
2017-05-29T23:31:29.763Z,6.08
2017-05-29T23:33:55.914Z,7.24
2017-05-29T23:36:22.209Z,6.66
2017-05-29T23:38:48.441Z,5.98
2017-05-29T23:41:14.611Z,6.42
2017-05-29T23:43:40.769Z,5.70
2017-05-29T23:46:06.930Z,6.70
2017-05-29T23:48:33.209Z,5.92
2017-05-29T23:50:59.366Z,5.94
2017-05-29T23:53:25.530Z,5.56
2017-05-29T23:55:51.753Z,5.92
2017-05-29T23:58:18.049Z,5.98
